createdAt,value
2022-12-20T00:02:02.190Z,98417.44
2022-12-20T00:04:30.394Z,98421.84
2022-12-20T00:06:58.590Z,98413.88
2022-12-20T00:09:28.112Z,98415.69
2022-12-20T00:11:56.250Z,98408.63
2022-12-20T00:14:24.387Z,98407.69
2022-12-20T00:16:52.566Z,98408.63
2022-12-20T00:19:20.782Z,98405.09
2022-12-20T00:21:49.005Z,98414.00
2022-12-20T00:24:22.243Z,98409.59
2022-12-20T00:26:55.345Z,98400.72
2022-12-20T00:29:23.560Z,98398.03
2022-12-20T00:31:51.786Z,98399.84
2022-12-20T00:34:20.063Z,98396.28
2022-12-20T00:36:48.297Z,98395.44
2022-12-20T00:39:16.432Z,98397.25
2022-12-20T00:41:44.692Z,98397.25
2022-12-20T00:44:16.602Z,98386.50
2022-12-20T00:46:44.802Z,98383.91
2022-12-20T00:49:12.981Z,98376.75
2022-12-20T00:51:41.125Z,98378.66
2022-12-20T00:54:09.390Z,98378.66
2022-12-20T00:56:37.601Z,98389.41
2022-12-20T00:59:05.755Z,98382.22
2022-12-20T01:01:35.811Z,98378.66
2022-12-20T01:04:04.232Z,98383.09
2022-12-20T01:06:32.413Z,98379.63
2022-12-20T01:09:00.663Z,98374.25
2022-12-20T01:11:30.952Z,98390.38
2022-12-20T01:14:00.843Z,98379.63
2022-12-20T01:16:30.884Z,98378.66
2022-12-20T01:19:00.503Z,98376.06
2022-12-20T01:21:28.715Z,98372.56
2022-12-20T01:23:57.036Z,98375.41
2022-12-20T01:26:28.766Z,98380.78
2022-12-20T01:28:57.808Z,98367.34
2022-12-20T01:31:26.537Z,98357.56
2022-12-20T01:33:54.825Z,98354.84
2022-12-20T01:36:25.921Z,98355.78
2022-12-20T01:38:57.527Z,98355.78
2022-12-20T01:41:25.698Z,98354.94
2022-12-20T01:43:55.418Z,98345.13
2022-12-20T01:46:24.561Z,98337.94
2022-12-20T01:48:54.243Z,98335.25
2022-12-20T01:51:24.349Z,98333.50
2022-12-20T01:53:53.671Z,98334.47
2022-12-20T01:56:21.821Z,98332.72
2022-12-20T01:58:50.072Z,98332.72
2022-12-20T02:01:18.234Z,98324.66
2022-12-20T02:03:46.484Z,98318.44
2022-12-20T02:06:19.234Z,98322.03
2022-12-20T02:08:49.504Z,98325.59
2022-12-20T02:11:26.126Z,98323.00
2022-12-20T02:13:59.216Z,98317.63
2022-12-20T02:16:28.196Z,98311.38
2022-12-20T02:18:59.302Z,98306.94
2022-12-20T02:21:30.220Z,98305.13
2022-12-20T02:24:33.740Z,98303.41
2022-12-20T02:27:38.624Z,98304.34
2022-12-20T02:30:10.830Z,98293.69
2022-12-20T02:32:40.909Z,98291.00
2022-12-20T02:35:10.121Z,98287.44
2022-12-20T02:37:38.247Z,98291.00
2022-12-20T02:40:07.148Z,98284.72
2022-12-20T02:42:35.742Z,98290.19
2022-12-20T02:45:17.926Z,98285.75
2022-12-20T02:47:50.535Z,98285.75
2022-12-20T02:50:19.914Z,98282.22
2022-12-20T02:52:48.295Z,98279.53
2022-12-20T02:55:16.549Z,98273.28
2022-12-20T02:57:46.895Z,98274.19
2022-12-20T03:00:16.072Z,98273.28
2022-12-20T03:03:02.614Z,98269.78
2022-12-20T03:05:33.011Z,98254.59
2022-12-20T03:08:02.094Z,98261.81
2022-12-20T03:10:30.334Z,98260.91
2022-12-20T03:12:58.687Z,98262.63
2022-12-20T03:15:27.196Z,98263.69
2022-12-20T03:17:57.895Z,98265.41
2022-12-20T03:20:26.092Z,98261.84
2022-12-20T03:22:55.739Z,98249.38
2022-12-20T03:25:23.951Z,98249.38
2022-12-20T03:27:52.278Z,98237.75
2022-12-20T03:30:20.766Z,98242.25
2022-12-20T03:32:48.915Z,98238.72
2022-12-20T03:35:17.412Z,98238.72
2022-12-20T03:37:45.544Z,98245.03
2022-12-20T03:40:16.117Z,98247.72
2022-12-20T03:42:45.318Z,98245.03
2022-12-20T03:45:13.507Z,98236.09
2022-12-20T03:47:41.787Z,98242.34
2022-12-20T03:50:10.895Z,98236.09
2022-12-20T03:52:40.080Z,98228.03
2022-12-20T03:55:09.556Z,98228.03
2022-12-20T03:57:43.201Z,98231.59
2022-12-20T04:00:26.253Z,98231.59
2022-12-20T04:03:01.707Z,98227.19
2022-12-20T04:05:31.014Z,98226.31
2022-12-20T04:07:59.344Z,98237.06
2022-12-20T04:10:27.768Z,98238.88
2022-12-20T04:12:57.391Z,98247.88
2022-12-20T04:15:26.077Z,98240.75
2022-12-20T04:17:54.627Z,98236.25
2022-12-20T04:20:22.899Z,98238.94
2022-12-20T04:23:00.263Z,98237.19
2022-12-20T04:25:28.629Z,98230.88
2022-12-20T04:27:58.548Z,98230.88
2022-12-20T04:30:26.962Z,98227.41
2022-12-20T04:32:55.448Z,98228.34
2022-12-20T04:35:24.232Z,98238.38
2022-12-20T04:37:52.835Z,98233.22
2022-12-20T04:40:21.056Z,98228.91
2022-12-20T04:42:53.725Z,98217.28
2022-12-20T04:45:23.437Z,98215.53
2022-12-20T04:47:53.448Z,98221.78
2022-12-20T04:50:27.373Z,98224.38
2022-12-20T04:53:12.845Z,98221.78
2022-12-20T04:55:41.104Z,98225.47
2022-12-20T04:58:09.291Z,98221.00
2022-12-20T05:00:42.200Z,98218.31
2022-12-20T05:03:33.442Z,98207.56
2022-12-20T05:06:02.711Z,98204.97
2022-12-20T05:08:31.280Z,98209.38
2022-12-20T05:10:59.522Z,98203.06
2022-12-20T05:13:27.699Z,98204.78
2022-12-20T05:15:57.948Z,98200.22
2022-12-20T05:18:30.151Z,98200.16
2022-12-20T05:21:16.513Z,98201.00
2022-12-20T05:24:04.557Z,98199.19
2022-12-20T05:26:38.343Z,98196.59
2022-12-20T05:29:06.734Z,98200.22
2022-12-20T05:31:36.859Z,98201.00
2022-12-20T05:34:05.333Z,98199.13
2022-12-20T05:36:36.824Z,98206.25
2022-12-20T05:39:07.303Z,98199.06
2022-12-20T05:41:40.632Z,98191.00
2022-12-20T05:44:09.720Z,98195.50
2022-12-20T05:46:42.586Z,98202.75
2022-12-20T05:49:16.438Z,98193.75
2022-12-20T05:51:44.758Z,98182.06
2022-12-20T05:54:26.470Z,98182.94
2022-12-20T05:56:59.950Z,98180.25
2022-12-20T05:59:35.545Z,98175.81
2022-12-20T06:02:07.843Z,98175.81
2022-12-20T06:04:38.223Z,98169.66
2022-12-20T06:07:13.958Z,98173.22
2022-12-20T06:09:44.420Z,98173.31
2022-12-20T06:12:15.863Z,98165.25
2022-12-20T06:14:44.341Z,98171.56
2022-12-20T06:17:15.289Z,98177.81
2022-12-20T06:19:44.319Z,98177.81
2022-12-20T06:22:16.123Z,98172.44
2022-12-20T06:24:49.068Z,98177.81
2022-12-20T06:27:23.049Z,98176.03
2022-12-20T06:29:59.991Z,98184.09
2022-12-20T06:32:36.276Z,98187.66
2022-12-20T06:35:04.556Z,98187.66
2022-12-20T06:37:33.230Z,98187.56
2022-12-20T06:40:01.581Z,98183.09
2022-12-20T06:42:29.908Z,98182.22
2022-12-20T06:44:58.192Z,98175.91
2022-12-20T06:47:26.323Z,98174.16
2022-12-20T06:49:56.381Z,98175.91
2022-12-20T06:52:24.659Z,98184.75
2022-12-20T06:54:55.978Z,98189.09
2022-12-20T06:57:24.785Z,98179.16
2022-12-20T06:59:53.568Z,98170.84
2022-12-20T07:02:21.868Z,98172.50
2022-12-20T07:04:50.112Z,98185.00
2022-12-20T07:07:19.719Z,98175.03
2022-12-20T07:09:47.837Z,98189.31
2022-12-20T07:12:16.011Z,98177.72
2022-12-20T07:14:44.600Z,98185.69
2022-12-20T07:17:12.836Z,98185.69
2022-12-20T07:19:45.581Z,98178.53
2022-12-20T07:22:16.961Z,98187.38
2022-12-20T07:24:47.713Z,98186.50
2022-12-20T07:27:15.958Z,98197.19
2022-12-20T07:29:44.235Z,98191.72
2022-12-20T07:32:12.970Z,98188.09
2022-12-20T07:34:41.134Z,98185.31
2022-12-20T07:37:09.742Z,98186.22
2022-12-20T07:39:37.862Z,98185.25
2022-12-20T07:42:07.565Z,98182.72
2022-12-20T07:44:43.404Z,98177.34
2022-12-20T07:47:11.941Z,98179.16
2022-12-20T07:49:40.060Z,98185.50
2022-12-20T07:52:08.316Z,98183.75
2022-12-20T07:54:37.222Z,98195.44
2022-12-20T07:57:09.046Z,98192.78
2022-12-20T07:59:38.207Z,98194.69
2022-12-20T08:02:06.587Z,98184.91
2022-12-20T08:04:34.912Z,98178.66
2022-12-20T08:07:03.680Z,98172.41
2022-12-20T08:09:33.059Z,98174.16
2022-12-20T08:12:01.261Z,98175.88
2022-12-20T08:14:30.799Z,98179.44
2022-12-20T08:16:59.074Z,98174.06
2022-12-20T08:19:32.168Z,98176.69
2022-12-20T08:22:01.154Z,98169.59
2022-12-20T08:24:29.356Z,98167.81
2022-12-20T08:26:57.983Z,98175.84
2022-12-20T08:29:26.177Z,98173.16
2022-12-20T08:31:55.777Z,98169.59
2022-12-20T08:34:24.008Z,98167.78
2022-12-20T08:36:52.212Z,98160.56
2022-12-20T08:39:20.385Z,98172.28
2022-12-20T08:41:48.475Z,98169.50
2022-12-20T08:44:16.713Z,98174.00
2022-12-20T08:46:44.864Z,98175.75
2022-12-20T08:49:15.548Z,98170.38
2022-12-20T08:51:43.796Z,98164.00
2022-12-20T08:54:11.947Z,98172.84
2022-12-20T08:56:40.143Z,98162.03
2022-12-20T08:59:08.248Z,98160.13
2022-12-20T09:01:36.543Z,98159.09
2022-12-20T09:04:05.638Z,98146.50
2022-12-20T09:06:36.075Z,98139.31
2022-12-20T09:09:04.393Z,98140.22
2022-12-20T09:11:32.545Z,98144.69
2022-12-20T09:14:00.758Z,98144.78
2022-12-20T09:16:29.815Z,98139.56
2022-12-20T09:19:04.623Z,98137.84
2022-12-20T09:21:35.087Z,98133.41
2022-12-20T09:24:03.412Z,98138.72
2022-12-20T09:26:32.431Z,98139.66
2022-12-20T09:29:02.166Z,98142.25
2022-12-20T09:31:30.446Z,98135.06
2022-12-20T09:33:59.242Z,98134.13
2022-12-20T09:36:28.092Z,98130.56
2022-12-20T09:38:57.507Z,98126.06
2022-12-20T09:41:31.307Z,98116.16
2022-12-20T09:43:59.679Z,98121.53
2022-12-20T09:46:27.769Z,98122.41
2022-12-20T09:48:55.997Z,98123.28
2022-12-20T09:51:33.076Z,98112.56
2022-12-20T09:54:07.610Z,98117.91
2022-12-20T09:56:37.624Z,98116.97
2022-12-20T09:59:06.638Z,98115.16
2022-12-20T10:01:39.696Z,98111.59
2022-12-20T10:04:09.456Z,98113.34
2022-12-20T10:06:45.342Z,98108.09
2022-12-20T10:09:22.640Z,98113.66
2022-12-20T10:11:57.471Z,98111.91
2022-12-20T10:14:32.642Z,98109.16
2022-12-20T10:17:03.444Z,98100.13
2022-12-20T10:19:40.266Z,98091.16
2022-12-20T10:22:10.819Z,98092.78
2022-12-20T10:24:40.378Z,98091.84
2022-12-20T10:27:13.256Z,98098.94
2022-12-20T10:29:41.372Z,98089.94
2022-12-20T10:32:14.268Z,98087.25
2022-12-20T10:34:48.488Z,98080.06
2022-12-20T10:37:17.082Z,98076.41
2022-12-20T10:39:49.072Z,98060.28
2022-12-20T10:42:38.809Z,98058.38
2022-12-20T10:45:07.935Z,98055.69
2022-12-20T10:47:39.349Z,98048.50
2022-12-20T10:50:10.454Z,98047.53
2022-12-20T10:52:38.926Z,98051.00
2022-12-20T10:55:25.972Z,98044.47
2022-12-20T10:57:54.127Z,98037.25
2022-12-20T11:00:29.676Z,98027.38
2022-12-20T11:03:07.417Z,98026.44
2022-12-20T11:05:35.715Z,98016.53
2022-12-20T11:11:18.813Z,97995.75
2022-12-20T11:13:47.336Z,98004.59
2022-12-20T11:16:27.302Z,98001.81
2022-12-20T11:19:04.940Z,97995.56
2022-12-20T11:21:35.823Z,97999.13
2022-12-20T11:24:07.579Z,97995.56
2022-12-20T11:26:49.423Z,98000.06
2022-12-20T11:29:28.426Z,97993.84
2022-12-20T11:32:00.463Z,97984.91
2022-12-20T11:34:35.204Z,97979.53
2022-12-20T11:37:12.217Z,97967.91
2022-12-20T11:39:42.059Z,97977.78
2022-12-20T11:42:15.620Z,97971.44
2022-12-20T11:45:01.685Z,97967.91
2022-12-20T11:47:52.168Z,97967.91
2022-12-20T11:50:36.680Z,97960.81
2022-12-20T11:53:06.721Z,97962.50
2022-12-20T11:55:36.130Z,97956.28
2022-12-20T11:58:18.517Z,97951.75
2022-12-20T12:00:50.937Z,97944.75
2022-12-20T12:03:21.184Z,97946.59
2022-12-20T12:05:52.230Z,97951.97
2022-12-20T12:08:21.437Z,97950.13
2022-12-20T12:10:54.273Z,97936.69
2022-12-20T12:13:25.490Z,97942.03
2022-12-20T12:15:56.567Z,97944.31
2022-12-20T12:18:25.876Z,97933.31
2022-12-20T12:21:00.067Z,97932.97
2022-12-20T12:23:32.371Z,97933.19
2022-12-20T12:26:00.552Z,97927.91
2022-12-20T12:28:30.021Z,97926.34
2022-12-20T12:30:59.573Z,97929.19
2022-12-20T12:33:38.234Z,97924.84
2022-12-20T12:36:18.159Z,97923.28
2022-12-20T12:39:11.932Z,97923.63
2022-12-20T12:42:14.351Z,97927.38
2022-12-20T12:44:47.944Z,97922.94
2022-12-20T12:47:23.255Z,97924.75
2022-12-20T12:49:52.685Z,97926.66
2022-12-20T12:52:36.698Z,97923.19
2022-12-20T12:55:05.180Z,97922.41
2022-12-20T12:57:33.711Z,97926.03
2022-12-20T13:00:03.703Z,97923.50
2022-12-20T13:02:51.791Z,97928.09
2022-12-20T13:05:40.623Z,97928.97
2022-12-20T13:08:16.805Z,97931.50
2022-12-20T13:11:00.802Z,97928.50
2022-12-20T13:13:31.728Z,97929.19
2022-12-20T13:16:12.546Z,97932.47
2022-12-20T13:18:40.705Z,97931.44
2022-12-20T13:21:37.099Z,97939.25
2022-12-20T13:24:36.398Z,97930.16
2022-12-20T13:27:04.989Z,97927.28
2022-12-20T13:29:35.043Z,97928.94
2022-12-20T13:32:04.700Z,97935.09
2022-12-20T13:34:55.269Z,97932.22
2022-12-20T13:37:29.945Z,97938.47
2022-12-20T13:39:58.226Z,97929.47
2022-12-20T13:42:35.531Z,97933.00
2022-12-20T13:45:04.942Z,97931.13
2022-12-20T13:47:39.039Z,97922.13
2022-12-20T13:50:23.703Z,97919.34
2022-12-20T13:52:52.781Z,97913.03
2022-12-20T13:55:26.702Z,97914.66
2022-12-20T13:57:55.336Z,97914.66
2022-12-20T14:00:25.573Z,97911.03
2022-12-20T14:02:55.608Z,97907.38
2022-12-20T14:05:26.573Z,97898.38
2022-12-20T14:07:59.319Z,97896.47
2022-12-20T14:10:28.924Z,97895.50
2022-12-20T14:12:57.316Z,97891.97
2022-12-20T14:15:27.625Z,97882.00
2022-12-20T14:17:57.469Z,97874.78
2022-12-20T14:20:28.425Z,97885.53
2022-12-20T14:23:04.498Z,97875.56
2022-12-20T14:25:41.585Z,97873.75
2022-12-20T14:28:19.999Z,97880.88
2022-12-20T14:30:51.478Z,97874.53
2022-12-20T14:33:22.204Z,97872.81
2022-12-20T14:35:51.119Z,97866.66
2022-12-20T14:38:23.701Z,97872.88
2022-12-20T14:40:54.123Z,97878.25
2022-12-20T14:43:28.277Z,97868.38
2022-12-20T14:46:10.475Z,97869.25
2022-12-20T14:48:40.197Z,97862.13
2022-12-20T14:51:08.811Z,97868.38
2022-12-20T14:53:37.958Z,97863.00
2022-12-20T14:56:06.512Z,97869.25
2022-12-20T14:58:35.110Z,97869.25
2022-12-20T15:01:04.990Z,97857.63
2022-12-20T15:03:33.771Z,97859.53
2022-12-20T15:06:03.303Z,97857.81
2022-12-20T15:08:32.928Z,97862.22
2022-12-20T15:11:03.521Z,97862.13
2022-12-20T15:13:33.205Z,97857.53
2022-12-20T15:16:02.632Z,97859.97
2022-12-20T15:18:30.845Z,97865.25
2022-12-20T15:21:14.138Z,97861.63
2022-12-20T15:23:44.078Z,97856.13
2022-12-20T15:26:12.884Z,97854.31
2022-12-20T15:28:41.077Z,97851.53
2022-12-20T15:31:11.137Z,97850.50
2022-12-20T15:33:40.288Z,97861.25
2022-12-20T15:36:08.724Z,97854.06
2022-12-20T15:39:10.686Z,97854.84
2022-12-20T15:41:27.563Z,97844.09
2022-12-20T15:43:57.229Z,97843.13
2022-12-20T15:46:25.456Z,97847.72
2022-12-20T15:48:53.742Z,97855.88
2022-12-20T15:51:25.344Z,97846.00
2022-12-20T15:53:54.865Z,97836.28
2022-12-20T15:56:25.117Z,97836.28
2022-12-20T15:58:53.774Z,97833.50
2022-12-20T16:01:22.932Z,97838.97
2022-12-20T16:03:51.143Z,97847.97
2022-12-20T16:06:19.255Z,97846.38
2022-12-20T16:08:47.496Z,97838.38
2022-12-20T16:11:20.699Z,97841.16
2022-12-20T16:13:48.808Z,97848.34
2022-12-20T16:16:18.185Z,97846.44
2022-12-20T16:18:46.458Z,97844.53
2022-12-20T16:21:17.438Z,97844.63
2022-12-20T16:23:45.787Z,97855.38
2022-12-20T16:26:14.820Z,97857.28
2022-12-20T16:28:44.398Z,97848.34
2022-12-20T16:31:13.691Z,97858.25
2022-12-20T16:33:42.059Z,97838.56
2022-12-20T16:36:11.703Z,97845.75
2022-12-20T16:38:39.802Z,97853.81
2022-12-20T16:41:12.928Z,97841.25
2022-12-20T16:43:41.115Z,97843.06
2022-12-20T16:46:12.615Z,97842.19
2022-12-20T16:48:41.753Z,97838.56
2022-12-20T16:51:22.940Z,97832.31
2022-12-20T16:56:39.285Z,97829.72
2022-12-20T16:59:18.990Z,97818.88
2022-12-20T17:01:49.536Z,97818.78
2022-12-20T17:04:19.017Z,97820.53
2022-12-20T17:06:47.098Z,97819.56
2022-12-20T17:12:01.582Z,97824.75
2022-12-20T17:14:29.698Z,97817.56
2022-12-20T17:16:59.998Z,97823.91
2022-12-20T17:19:28.249Z,97824.75
2022-12-20T17:24:41.765Z,97832.63
2022-12-20T17:27:10.560Z,97838.78
2022-12-20T17:29:38.685Z,97835.16
2022-12-20T17:32:18.343Z,97835.94
2022-12-20T17:34:46.522Z,97830.47
2022-12-20T17:37:14.631Z,97837.47
2022-12-20T17:39:42.735Z,97830.28
2022-12-20T17:42:11.043Z,97832.88
2022-12-20T17:44:39.211Z,97841.81
2022-12-20T17:47:07.613Z,97835.38
2022-12-20T17:49:37.132Z,97827.25
2022-12-20T17:52:05.712Z,97830.75
2022-12-20T17:54:39.709Z,97821.75
2022-12-20T17:57:13.967Z,97827.13
2022-12-20T17:59:42.428Z,97828.00
2022-12-20T18:02:20.031Z,97831.53
2022-12-20T18:04:50.008Z,97834.22
2022-12-20T18:07:18.341Z,97833.28
2022-12-20T18:09:48.031Z,97835.97
2022-12-20T18:12:16.177Z,97833.28
2022-12-20T18:14:44.886Z,97840.38
2022-12-20T18:17:13.203Z,97829.63
2022-12-20T18:19:41.469Z,97824.25
2022-12-20T18:22:11.009Z,97829.56
2022-12-20T18:24:39.106Z,97833.09
2022-12-20T18:27:07.200Z,97831.28
2022-12-20T18:29:35.329Z,97824.97
2022-12-20T18:32:03.547Z,97822.16
2022-12-20T18:34:31.760Z,97831.94
2022-12-20T18:37:01.933Z,97821.19
2022-12-20T18:39:31.525Z,97820.25
2022-12-20T18:41:59.700Z,97826.50
2022-12-20T18:44:27.849Z,97819.19
2022-12-20T18:46:55.933Z,97822.75
2022-12-20T18:49:24.084Z,97812.84
2022-12-20T18:51:52.211Z,97815.44
2022-12-20T18:54:20.423Z,97810.06
2022-12-20T18:56:50.477Z,97812.66
2022-12-20T18:59:18.694Z,97797.50
2022-12-20T19:01:46.944Z,97802.59
2022-12-20T19:04:20.873Z,97788.94
2022-12-20T19:06:52.331Z,97788.94
2022-12-20T19:09:20.421Z,97784.56
2022-12-20T19:11:56.186Z,97780.00
2022-12-20T19:14:25.430Z,97776.47
2022-12-20T19:16:53.724Z,97771.09
2022-12-20T19:19:21.889Z,97776.47
2022-12-20T19:21:49.947Z,97772.81
2022-12-20T19:24:18.082Z,97762.06
2022-12-20T19:26:46.142Z,97761.13
2022-12-20T19:29:15.648Z,97746.78
2022-12-20T19:31:43.866Z,97747.59
2022-12-20T19:34:13.527Z,97745.78
2022-12-20T19:36:42.379Z,97750.28
2022-12-20T19:39:14.239Z,97752.00
2022-12-20T19:41:42.383Z,97746.63
2022-12-20T19:44:10.505Z,97750.19
2022-12-20T19:46:40.351Z,97738.56
2022-12-20T19:49:08.487Z,97729.66
2022-12-20T19:51:36.615Z,97731.34
2022-12-20T19:54:04.799Z,97728.66
2022-12-20T19:56:35.429Z,97717.91
2022-12-20T19:59:03.570Z,97713.50
2022-12-20T20:01:31.739Z,97713.28
2022-12-20T20:04:01.887Z,97705.88
2022-12-20T20:06:30.159Z,97703.31
2022-12-20T20:08:59.890Z,97706.00
2022-12-20T20:11:28.390Z,97700.63
2022-12-20T20:13:56.543Z,97700.63
2022-12-20T20:16:25.083Z,97699.75
2022-12-20T20:18:53.803Z,97704.19
2022-12-20T20:21:24.051Z,97695.25
2022-12-20T20:23:52.474Z,97691.59
2022-12-20T20:26:21.810Z,97686.22
2022-12-20T20:28:50.480Z,97688.91
2022-12-20T20:31:19.329Z,97693.31
2022-12-20T20:33:47.641Z,97698.69
2022-12-20T20:36:16.764Z,97699.56
2022-12-20T20:38:46.381Z,97700.44
2022-12-20T20:41:15.222Z,97697.75
2022-12-20T20:43:43.390Z,97689.69
2022-12-20T20:46:12.559Z,97686.13
2022-12-20T20:48:40.754Z,97696.78
2022-12-20T20:51:08.940Z,97691.41
2022-12-20T20:53:37.114Z,97700.44
2022-12-20T20:56:07.270Z,97692.38
2022-12-20T20:58:35.663Z,97691.41
2022-12-20T21:01:04.766Z,97688.81
2022-12-20T21:03:33.251Z,97688.72
2022-12-20T21:08:49.543Z,97684.19
2022-12-20T21:11:19.076Z,97680.63
2022-12-20T21:13:47.295Z,97681.50
2022-12-20T21:16:20.446Z,97675.25
2022-12-20T21:18:51.915Z,97671.63
2022-12-20T21:21:20.354Z,97661.81
2022-12-20T21:23:48.732Z,97665.38
2022-12-20T21:26:18.753Z,97674.38
2022-12-20T21:28:47.127Z,97671.63
2022-12-20T21:31:16.230Z,97663.63
2022-12-20T21:33:45.851Z,97664.59
2022-12-20T21:36:15.484Z,97652.97
2022-12-20T21:38:43.730Z,97664.72
2022-12-20T21:41:13.137Z,97658.47
2022-12-20T21:43:42.671Z,97641.44
2022-12-20T21:46:11.612Z,97634.34
2022-12-20T21:48:40.112Z,97645.94
2022-12-20T21:51:10.263Z,97647.81
2022-12-20T21:53:41.922Z,97643.38
2022-12-20T21:56:10.080Z,97649.72
2022-12-20T21:58:38.187Z,97641.66
2022-12-20T22:01:08.329Z,97643.47
2022-12-20T22:03:36.844Z,97639.03
2022-12-20T22:06:05.239Z,97628.28
2022-12-20T22:08:33.630Z,97623.00
2022-12-20T22:11:02.246Z,97629.25
2022-12-20T22:13:33.229Z,97624.78
2022-12-20T22:16:08.403Z,97616.84
2022-12-20T22:18:36.742Z,97619.53
2022-12-20T22:21:05.073Z,97617.81
2022-12-20T22:23:33.472Z,97608.00
2022-12-20T22:26:03.155Z,97609.81
2022-12-20T22:28:31.307Z,97605.41
2022-12-20T22:30:59.399Z,97608.97
2022-12-20T22:33:28.919Z,97608.09
2022-12-20T22:35:58.626Z,97598.28
2022-12-20T22:38:26.707Z,97600.22
2022-12-20T22:40:58.912Z,97589.47
2022-12-20T22:43:27.168Z,97588.63
2022-12-20T22:45:58.444Z,97591.31
2022-12-20T22:48:28.007Z,97580.63
2022-12-20T22:50:59.721Z,97578.06
2022-12-20T22:53:28.256Z,97583.44
2022-12-20T22:55:56.335Z,97582.56
2022-12-20T22:58:24.503Z,97575.47
2022-12-20T23:00:52.558Z,97576.44
2022-12-20T23:03:20.776Z,97564.06
2022-12-20T23:05:56.917Z,97554.25
2022-12-20T23:08:25.501Z,97551.56
2022-12-20T23:11:10.675Z,97541.78
2022-12-20T23:13:56.639Z,97535.53
2022-12-20T23:16:25.009Z,97528.44
2022-12-20T23:18:55.114Z,97519.50
2022-12-20T23:21:42.092Z,97522.31
2022-12-20T23:24:10.378Z,97509.69
2022-12-20T23:26:38.704Z,97505.31
2022-12-20T23:29:07.006Z,97512.50
2022-12-20T23:31:35.225Z,97491.88
2022-12-20T23:34:03.455Z,97496.38
2022-12-20T23:36:33.770Z,97494.56
2022-12-20T23:39:01.952Z,97489.19
2022-12-20T23:41:30.386Z,97493.69
2022-12-20T23:43:58.493Z,97483.91
2022-12-20T23:46:26.845Z,97488.41
2022-12-20T23:48:55.048Z,97496.47
2022-12-20T23:51:23.183Z,97491.09
2022-12-20T23:53:53.232Z,97493.78
2022-12-20T23:56:22.103Z,97489.34
2022-12-20T23:58:54.299Z,97483.16
